createdAt,value
2019-01-10T00:02:21.141Z,2.00
2019-01-10T00:04:50.904Z,2.00
2019-01-10T00:07:20.642Z,1.70
2019-01-10T00:09:50.379Z,2.13
2019-01-10T00:12:20.483Z,2.30
2019-01-10T00:14:50.198Z,2.10
2019-01-10T00:17:21.350Z,1.80
2019-01-10T00:19:54.079Z,2.63
2019-01-10T00:22:25.524Z,1.60
2019-01-10T00:24:56.918Z,2.17
2019-01-10T00:27:26.662Z,2.20
2019-01-10T00:29:56.441Z,1.83
2019-01-10T00:32:32.050Z,1.77
2019-01-10T00:35:05.509Z,1.93
2019-01-10T00:37:35.190Z,2.00
2019-01-10T00:40:08.142Z,2.37
2019-01-10T00:42:37.822Z,2.07
2019-01-10T00:48:06.219Z,1.80
2019-01-10T00:50:35.903Z,2.27
2019-01-10T00:53:08.719Z,1.90
2019-01-10T00:55:42.627Z,1.90
2019-01-10T00:58:12.898Z,2.10
2019-01-10T01:00:59.438Z,1.90
2019-01-10T01:03:28.146Z,1.80
2019-01-10T01:06:00.393Z,1.87
2019-01-10T01:08:30.967Z,2.00
2019-01-10T01:11:00.813Z,2.17
2019-01-10T01:13:30.636Z,2.50
2019-01-10T01:16:00.450Z,1.90
2019-01-10T01:18:34.673Z,1.73
2019-01-10T01:21:06.076Z,2.03
2019-01-10T01:23:36.151Z,1.70
2019-01-10T01:26:05.990Z,2.10
2019-01-10T01:28:37.150Z,1.80
2019-01-10T01:31:07.267Z,1.83
2019-01-10T01:33:37.049Z,1.70
2019-01-10T01:36:07.715Z,2.07
2019-01-10T01:38:37.438Z,2.00
2019-01-10T01:41:10.687Z,2.07
2019-01-10T01:43:40.465Z,1.83
2019-01-10T01:46:10.186Z,1.83
2019-01-10T01:48:39.944Z,1.67
2019-01-10T01:51:09.699Z,1.80
2019-01-10T01:53:39.509Z,2.63
2019-01-10T01:56:09.266Z,1.93
2019-01-10T01:58:38.997Z,1.87
2019-01-10T02:01:10.212Z,1.67
2019-01-10T02:03:40.146Z,1.80
2019-01-10T02:06:10.044Z,2.13
2019-01-10T02:08:39.776Z,2.23
2019-01-10T02:11:09.569Z,1.90
2019-01-10T02:13:39.225Z,2.23
2019-01-10T02:16:08.913Z,2.10
2019-01-10T02:18:38.644Z,2.20
2019-01-10T02:21:08.388Z,1.80
2019-01-10T02:23:38.156Z,2.00
2019-01-10T02:26:07.907Z,2.90
2019-01-10T02:28:37.649Z,2.40
2019-01-10T02:31:07.406Z,2.10
2019-01-10T02:33:37.036Z,2.03
2019-01-10T02:36:06.775Z,2.20
2019-01-10T02:38:36.549Z,2.03
2019-01-10T02:41:06.367Z,1.97
2019-01-10T02:43:36.116Z,1.70
2019-01-10T02:46:05.996Z,2.10
2019-01-10T02:48:35.735Z,2.23
2019-01-10T02:51:05.454Z,1.90
2019-01-10T02:53:35.125Z,2.30
2019-01-10T02:56:05.001Z,2.67
2019-01-10T02:58:34.688Z,2.60
2019-01-10T03:01:04.428Z,2.37
2019-01-10T03:03:34.198Z,2.47
2019-01-10T03:06:03.979Z,2.53
2019-01-10T03:08:33.658Z,2.50
2019-01-10T03:11:03.409Z,2.93
2019-01-10T03:13:36.975Z,2.67
2019-01-10T03:16:04.460Z,2.53
2019-01-10T03:18:34.130Z,2.73
2019-01-10T03:21:03.947Z,2.93
2019-01-10T03:23:33.709Z,2.77
2019-01-10T03:26:03.514Z,2.20
2019-01-10T03:28:33.335Z,2.83
2019-01-10T03:31:03.064Z,2.77
2019-01-10T03:33:32.744Z,2.50
2019-01-10T03:36:02.356Z,2.40
2019-01-10T03:38:32.118Z,2.90
2019-01-10T03:41:01.877Z,2.77
2019-01-10T03:43:31.644Z,2.90
2019-01-10T03:46:01.364Z,2.30
2019-01-10T03:48:31.110Z,2.33
2019-01-10T03:51:00.965Z,3.23
2019-01-10T03:53:30.719Z,2.70
2019-01-10T03:56:00.493Z,2.93
2019-01-10T03:58:30.190Z,3.13
2019-01-10T04:00:59.990Z,2.97
2019-01-10T04:03:29.945Z,3.10
2019-01-10T04:05:59.873Z,3.20
2019-01-10T04:08:29.685Z,3.33
2019-01-10T04:10:59.347Z,3.00
2019-01-10T04:13:29.091Z,2.97
2019-01-10T04:15:58.727Z,3.40
2019-01-10T04:18:28.460Z,3.03
2019-01-10T04:20:58.246Z,3.30
2019-01-10T04:23:28.294Z,3.27
2019-01-10T04:25:57.936Z,3.27
2019-01-10T04:28:27.694Z,3.57
2019-01-10T04:30:57.493Z,3.60
2019-01-10T04:33:27.170Z,3.33
2019-01-10T04:35:56.955Z,3.57
2019-01-10T04:38:26.824Z,3.70
2019-01-10T04:40:56.610Z,3.37
2019-01-10T04:43:26.374Z,4.30
2019-01-10T04:45:56.135Z,3.43
2019-01-10T04:48:25.930Z,3.70
2019-01-10T04:50:55.655Z,4.00
2019-01-10T04:53:26.719Z,3.97
2019-01-10T04:55:56.715Z,3.90
2019-01-10T04:58:26.510Z,3.60
2019-01-10T05:00:56.204Z,3.90
2019-01-10T05:03:25.971Z,3.53
2019-01-10T05:05:55.710Z,3.53
2019-01-10T05:08:25.448Z,4.33
2019-01-10T05:10:55.194Z,4.23
2019-01-10T05:13:25.009Z,3.90
2019-01-10T05:15:54.773Z,3.90
2019-01-10T05:18:24.562Z,3.93
2019-01-10T05:20:54.248Z,4.43
2019-01-10T05:23:23.985Z,3.80
2019-01-10T05:25:53.772Z,4.20
2019-01-10T05:28:23.534Z,3.73
2019-01-10T05:30:53.375Z,4.67
2019-01-10T05:33:23.269Z,4.30
2019-01-10T05:35:53.041Z,4.47
2019-01-10T05:38:22.800Z,4.33
2019-01-10T05:40:52.567Z,4.90
2019-01-10T05:43:22.332Z,5.53
2019-01-10T05:45:52.136Z,4.40
2019-01-10T05:48:21.889Z,4.67
2019-01-10T05:50:51.630Z,4.33
2019-01-10T05:53:21.357Z,4.40
2019-01-10T05:55:51.250Z,4.20
2019-01-10T05:58:21.034Z,3.87
2019-01-10T06:00:50.835Z,4.77
2019-01-10T06:03:20.712Z,4.73
2019-01-10T06:05:50.498Z,4.53
2019-01-10T06:08:20.269Z,4.60
2019-01-10T06:10:50.046Z,4.70
2019-01-10T06:13:19.796Z,5.07
2019-01-10T06:15:49.713Z,5.13
2019-01-10T06:18:19.475Z,5.83
2019-01-10T06:20:49.243Z,6.03
2019-01-10T06:23:19.047Z,6.13
2019-01-10T06:25:48.809Z,5.57
2019-01-10T06:28:18.623Z,6.40
2019-01-10T06:30:48.409Z,6.17
2019-01-10T06:33:18.207Z,6.40
2019-01-10T06:35:48.108Z,6.70
2019-01-10T06:38:18.028Z,6.07
2019-01-10T06:40:47.842Z,6.87
2019-01-10T06:43:17.614Z,6.60
2019-01-10T06:45:47.477Z,6.30
2019-01-10T06:48:17.222Z,7.07
2019-01-10T06:50:47.072Z,6.70
2019-01-10T06:53:16.813Z,6.60
2019-01-10T06:55:46.617Z,6.63
2019-01-10T06:58:16.404Z,6.63
2019-01-10T07:00:46.208Z,6.80
2019-01-10T07:03:15.996Z,7.10
2019-01-10T07:05:45.744Z,7.17
2019-01-10T07:08:15.615Z,6.70
2019-01-10T07:10:45.470Z,7.40
2019-01-10T07:13:15.366Z,7.13
2019-01-10T07:15:45.123Z,6.70
2019-01-10T07:18:14.864Z,7.17
2019-01-10T07:20:44.647Z,6.70
2019-01-10T07:23:14.411Z,8.00
2019-01-10T07:25:44.206Z,6.63
2019-01-10T07:28:25.653Z,7.47
2019-01-10T07:30:55.965Z,6.73
2019-01-10T07:33:25.801Z,7.30
2019-01-10T07:35:56.369Z,6.83
2019-01-10T07:38:26.037Z,6.80
2019-01-10T07:40:55.948Z,7.13
2019-01-10T07:43:25.705Z,7.37
2019-01-10T07:45:55.542Z,6.70
2019-01-10T07:48:25.334Z,6.80
2019-01-10T07:50:55.121Z,7.13
2019-01-10T07:53:24.877Z,6.83
2019-01-10T07:55:54.627Z,6.87
2019-01-10T07:58:24.409Z,6.97
2019-01-10T08:00:54.175Z,7.40
2019-01-10T08:03:24.152Z,8.17
2019-01-10T08:05:53.954Z,7.73
2019-01-10T08:08:23.683Z,7.73
2019-01-10T08:10:53.466Z,7.50
2019-01-10T08:13:23.239Z,8.07
2019-01-10T08:15:53.015Z,8.37
2019-01-10T08:18:22.810Z,8.07
2019-01-10T08:20:52.607Z,7.33
2019-01-10T08:23:22.337Z,8.07
2019-01-10T08:25:52.109Z,7.60
2019-01-10T08:28:21.868Z,7.57
2019-01-10T08:30:51.551Z,7.57
2019-01-10T08:33:21.230Z,8.13
2019-01-10T08:35:51.098Z,7.50
2019-01-10T08:38:20.845Z,7.63
2019-01-10T08:40:50.596Z,7.87
2019-01-10T08:43:20.327Z,7.50
2019-01-10T08:45:50.112Z,7.40
2019-01-10T08:48:19.894Z,7.70
2019-01-10T08:50:49.658Z,8.17
2019-01-10T08:53:21.631Z,7.83
2019-01-10T08:55:50.786Z,7.90
2019-01-10T08:58:20.638Z,7.40
2019-01-10T09:00:50.415Z,7.70
2019-01-10T09:03:20.157Z,7.70
2019-01-10T09:05:49.857Z,7.10
2019-01-10T09:08:19.608Z,7.60
2019-01-10T09:10:50.603Z,7.87
2019-01-10T09:13:20.442Z,7.10
2019-01-10T09:15:50.202Z,7.30
2019-01-10T09:18:19.953Z,7.30
2019-01-10T09:20:50.494Z,7.47
2019-01-10T09:23:20.226Z,7.13
2019-01-10T09:25:50.030Z,7.70
2019-01-10T09:28:19.722Z,7.00
2019-01-10T09:30:49.513Z,6.93
2019-01-10T09:33:19.480Z,7.20
2019-01-10T09:35:49.178Z,7.03
2019-01-10T09:38:18.988Z,7.00
2019-01-10T09:40:48.737Z,6.90
2019-01-10T09:43:18.530Z,7.13
2019-01-10T09:45:48.286Z,6.87
2019-01-10T09:48:17.995Z,6.43
2019-01-10T09:50:47.764Z,7.43
2019-01-10T09:53:17.452Z,6.50
2019-01-10T09:55:47.219Z,6.93
2019-01-10T09:58:16.990Z,7.00
2019-01-10T10:00:46.731Z,7.20
2019-01-10T10:03:16.516Z,6.77
2019-01-10T10:05:46.214Z,6.67
2019-01-10T10:08:15.925Z,6.70
2019-01-10T10:10:45.719Z,6.67
2019-01-10T10:13:15.458Z,6.87
2019-01-10T10:15:52.280Z,7.03
2019-01-10T10:18:18.171Z,7.60
2019-01-10T10:20:47.961Z,7.97
2019-01-10T10:23:26.567Z,7.23
2019-01-10T10:25:49.048Z,6.53
2019-01-10T10:28:18.859Z,7.40
2019-01-10T10:30:48.569Z,7.30
2019-01-10T10:33:18.387Z,7.27
2019-01-10T10:35:48.290Z,7.17
2019-01-10T10:38:17.980Z,6.87
2019-01-10T10:40:47.679Z,7.00
2019-01-10T10:43:17.452Z,7.07
2019-01-10T10:45:47.198Z,6.73
2019-01-10T10:48:17.895Z,6.63
2019-01-10T10:50:47.655Z,6.70
2019-01-10T10:53:19.500Z,6.57
2019-01-10T10:55:49.354Z,6.93
2019-01-10T10:58:19.120Z,7.00
2019-01-10T11:00:48.973Z,6.70
2019-01-10T11:03:18.689Z,6.00
2019-01-10T11:05:48.445Z,6.60
2019-01-10T11:08:20.935Z,6.77
2019-01-10T11:10:51.004Z,5.60
2019-01-10T11:13:20.764Z,5.60
2019-01-10T11:15:56.312Z,6.17
2019-01-10T11:18:26.132Z,6.07
2019-01-10T11:20:55.875Z,6.83
2019-01-10T11:23:25.625Z,6.43
2019-01-10T11:26:06.446Z,6.03
2019-01-10T11:28:35.431Z,6.77
2019-01-10T11:31:08.153Z,6.60
2019-01-10T11:33:41.714Z,5.83
2019-01-10T11:36:11.702Z,5.93
2019-01-10T11:54:24.779Z,5.93
2019-01-10T11:56:54.553Z,6.00
2019-01-10T11:59:24.369Z,5.40
2019-01-10T12:01:54.419Z,5.90
2019-01-10T12:04:24.533Z,5.83
2019-01-10T12:07:03.867Z,5.90
2019-01-10T12:09:33.689Z,4.83
2019-01-10T12:12:03.535Z,4.90
2019-01-10T12:14:35.346Z,5.40
2019-01-10T12:17:05.190Z,5.30
2019-01-10T12:19:36.122Z,4.50
2019-01-10T12:22:05.969Z,5.13
2019-01-10T12:24:35.754Z,4.67
2019-01-10T12:27:05.846Z,5.70
2019-01-10T12:29:36.768Z,5.43
2019-01-10T12:32:06.900Z,5.60
2019-01-10T12:34:37.024Z,5.10
2019-01-10T12:37:06.855Z,5.47
2019-01-10T12:39:36.780Z,4.77
2019-01-10T12:42:07.550Z,5.00
2019-01-10T12:44:37.377Z,4.83
2019-01-10T12:47:07.298Z,5.53
2019-01-10T12:49:37.092Z,5.20
2019-01-10T12:52:06.897Z,5.50
2019-01-10T12:54:36.687Z,4.43
2019-01-10T12:57:06.501Z,5.20
2019-01-10T12:59:36.389Z,4.67
2019-01-10T13:02:06.211Z,4.93
2019-01-10T13:04:36.054Z,4.47
2019-01-10T13:07:05.869Z,4.63
2019-01-10T13:09:35.659Z,4.57
2019-01-10T13:12:05.524Z,4.00
2019-01-10T13:14:35.358Z,4.20
2019-01-10T13:17:05.340Z,3.90
2019-01-10T13:19:35.183Z,4.40
2019-01-10T13:22:05.101Z,4.20
2019-01-10T13:24:35.137Z,4.50
2019-01-10T13:27:04.934Z,4.13
2019-01-10T13:29:34.636Z,4.30
2019-01-10T13:32:04.522Z,3.83
2019-01-10T13:34:36.201Z,3.67
2019-01-10T13:37:05.887Z,3.63
2019-01-10T13:39:35.666Z,3.80
2019-01-10T13:42:05.511Z,4.00
2019-01-10T13:44:35.346Z,3.50
2019-01-10T13:47:05.626Z,3.60
2019-01-10T13:49:35.414Z,4.37
2019-01-10T13:52:05.174Z,4.10
2019-01-10T13:54:34.862Z,4.00
2019-01-10T13:57:04.592Z,3.83
2019-01-10T13:59:34.507Z,4.00
2019-01-10T14:02:04.445Z,4.30
2019-01-10T14:04:34.236Z,4.10
2019-01-10T14:07:04.212Z,4.83
2019-01-10T14:09:33.968Z,5.00
2019-01-10T14:12:04.251Z,5.00
2019-01-10T14:14:34.169Z,5.40
2019-01-10T14:17:04.153Z,5.00
2019-01-10T14:19:33.981Z,5.00
2019-01-10T14:22:05.985Z,5.43
2019-01-10T14:24:35.926Z,5.13
2019-01-10T14:27:05.893Z,4.60
2019-01-10T14:29:35.920Z,4.40
2019-01-10T14:32:05.686Z,5.30
2019-01-10T14:34:35.535Z,5.70
2019-01-10T14:37:05.503Z,5.77
2019-01-10T14:39:35.334Z,5.60
2019-01-10T14:42:06.922Z,5.67
2019-01-10T14:44:40.707Z,5.10
2019-01-10T15:02:21.942Z,5.10
2019-01-10T15:04:51.823Z,5.00
2019-01-10T15:07:21.505Z,4.80
2019-01-10T15:09:51.329Z,5.23
2019-01-10T15:12:21.007Z,5.30
2019-01-10T15:14:50.885Z,6.13
2019-01-10T15:17:20.664Z,6.23
2019-01-10T15:19:50.493Z,6.47
2019-01-10T15:22:20.280Z,7.53
2019-01-10T15:24:50.091Z,7.00
2019-01-10T15:27:19.954Z,7.37
2019-01-10T15:29:49.617Z,6.67
2019-01-10T15:32:19.441Z,6.90
2019-01-10T15:34:53.999Z,7.20
2019-01-10T15:37:23.862Z,6.90
2019-01-10T15:39:56.424Z,7.63
2019-01-10T15:42:34.707Z,6.73
2019-01-10T15:45:01.017Z,6.80
2019-01-10T15:50:26.739Z,8.07
2019-01-10T15:52:56.568Z,7.53
2019-01-10T15:55:26.434Z,7.70
2019-01-10T15:57:56.436Z,8.03
2019-01-10T16:00:26.371Z,8.67
2019-01-10T16:02:56.203Z,8.93
2019-01-10T16:05:25.953Z,8.00
2019-01-10T16:07:55.963Z,8.93
2019-01-10T16:10:25.894Z,8.20
2019-01-10T16:12:55.793Z,9.13
2019-01-10T16:15:25.712Z,9.97
2019-01-10T16:17:57.149Z,8.93
2019-01-10T16:20:27.054Z,11.07
2019-01-10T16:22:59.644Z,10.67
2019-01-10T16:25:29.546Z,10.70
2019-01-10T16:27:59.447Z,11.77
2019-01-10T16:30:37.105Z,11.20
2019-01-10T16:33:08.538Z,11.13
2019-01-10T16:35:38.572Z,11.10
2019-01-10T16:38:08.375Z,9.77
2019-01-10T16:40:38.506Z,11.40
2019-01-10T16:43:11.882Z,10.07
2019-01-10T16:45:39.869Z,11.10
2019-01-10T16:48:09.953Z,10.10
2019-01-10T16:50:39.808Z,11.20
2019-01-10T16:56:09.845Z,10.00
2019-01-10T16:58:40.172Z,10.13
2019-01-10T17:01:10.175Z,10.60
2019-01-10T17:03:41.418Z,11.17
2019-01-10T17:06:11.347Z,11.00
2019-01-10T17:08:44.378Z,10.63
2019-01-10T17:11:14.416Z,8.73
2019-01-10T17:13:45.909Z,8.90
2019-01-10T17:16:15.653Z,8.20
2019-01-10T17:18:49.040Z,7.73
2019-01-10T17:21:18.975Z,8.90
2019-01-10T17:23:48.822Z,8.23
2019-01-10T17:26:18.659Z,7.97
2019-01-10T17:28:48.551Z,8.57
2019-01-10T17:31:18.385Z,8.70
2019-01-10T17:33:48.092Z,9.43
2019-01-10T17:36:18.547Z,9.00
2019-01-10T17:38:48.609Z,9.00
2019-01-10T17:41:18.391Z,9.40
2019-01-10T17:43:48.198Z,9.33
2019-01-10T17:46:18.087Z,8.67
2019-01-10T17:48:47.928Z,9.40
2019-01-10T17:51:17.875Z,9.47
2019-01-10T17:53:47.685Z,10.03
2019-01-10T17:56:17.491Z,9.57
2019-01-10T17:58:47.361Z,10.77
2019-01-10T18:01:17.115Z,10.07
2019-01-10T18:03:46.934Z,9.50
2019-01-10T18:06:16.734Z,9.07
2019-01-10T18:08:46.574Z,9.67
2019-01-10T18:11:16.389Z,10.10
2019-01-10T18:13:46.331Z,9.67
2019-01-10T18:16:16.068Z,9.53
2019-01-10T18:18:45.882Z,10.37
2019-01-10T18:21:15.707Z,9.50
2019-01-10T18:23:45.680Z,10.03
2019-01-10T18:26:15.545Z,10.10
2019-01-10T18:28:45.357Z,10.33
2019-01-10T18:31:15.211Z,10.83
2019-01-10T18:33:44.978Z,9.70
2019-01-10T18:36:15.004Z,10.87
2019-01-10T18:38:44.855Z,10.53
2019-01-10T18:41:14.714Z,10.40
2019-01-10T18:43:44.424Z,10.07
2019-01-10T18:46:14.208Z,11.10
2019-01-10T18:48:43.989Z,10.03
2019-01-10T18:51:13.731Z,11.40
2019-01-10T18:53:43.535Z,11.47
2019-01-10T18:56:13.321Z,10.83
2019-01-10T18:58:43.482Z,10.90
2019-01-10T19:01:22.736Z,11.37
2019-01-10T19:03:57.420Z,11.53
2019-01-10T19:06:27.404Z,11.87
2019-01-10T19:08:58.096Z,11.00
2019-01-10T19:11:38.833Z,11.73
2019-01-10T19:14:09.639Z,11.57
2019-01-10T19:16:48.674Z,12.03
2019-01-10T19:19:28.119Z,13.03
2019-01-10T19:22:01.455Z,11.60
2019-01-10T19:24:40.171Z,11.87
2019-01-10T19:27:15.084Z,11.40
2019-01-10T19:29:47.425Z,11.00
2019-01-10T19:32:20.336Z,11.90
2019-01-10T19:34:50.129Z,11.60
2019-01-10T19:37:22.573Z,12.87
2019-01-10T19:39:52.631Z,12.27
2019-01-10T19:42:23.687Z,12.10
2019-01-10T19:44:56.588Z,12.50
2019-01-10T19:47:34.247Z,12.93
2019-01-10T19:50:16.086Z,12.20
2019-01-10T19:52:45.999Z,12.80
2019-01-10T20:05:47.081Z,13.40
2019-01-10T20:11:07.374Z,14.03
2019-01-10T20:13:37.238Z,14.57
2019-01-10T20:16:07.019Z,15.27
2019-01-10T20:18:36.828Z,14.03
2019-01-10T20:21:06.735Z,14.17
2019-01-10T20:23:41.093Z,14.90
2019-01-10T20:26:10.881Z,16.73
2019-01-10T20:28:40.629Z,15.30
2019-01-10T20:31:10.743Z,14.73
2019-01-10T20:33:40.528Z,14.37
2019-01-10T20:36:10.300Z,14.40
2019-01-10T20:38:40.574Z,13.97
2019-01-10T20:41:10.344Z,13.80
2019-01-10T20:43:40.041Z,12.93
2019-01-10T20:46:13.476Z,13.57
2019-01-10T20:48:49.769Z,13.23
2019-01-10T20:51:20.180Z,13.33
2019-01-10T20:53:50.101Z,12.27
2019-01-10T20:56:23.050Z,12.83
2019-01-10T20:58:53.914Z,13.90
2019-01-10T21:01:25.659Z,13.57
2019-01-10T21:03:57.103Z,13.53
2019-01-10T21:06:40.453Z,13.83
2019-01-10T21:09:19.951Z,12.87
2019-01-10T21:11:50.052Z,13.93
2019-01-10T21:14:19.742Z,14.93
2019-01-10T21:16:49.651Z,13.73
2019-01-10T21:19:19.472Z,14.43
2019-01-10T21:21:49.284Z,13.90
2019-01-10T21:24:19.068Z,15.20
2019-01-10T21:26:48.794Z,14.40
2019-01-10T21:29:24.416Z,15.30
2019-01-10T21:31:54.263Z,15.60
2019-01-10T21:34:24.059Z,15.10
2019-01-10T21:36:53.815Z,16.47
2019-01-10T21:39:23.591Z,16.83
2019-01-10T21:41:57.394Z,17.60
2019-01-10T21:44:29.115Z,17.30
2019-01-10T21:47:02.330Z,17.83
2019-01-10T21:49:32.146Z,18.63
2019-01-10T21:52:02.913Z,17.30
2019-01-10T21:54:34.593Z,18.70
2019-01-10T21:57:06.792Z,19.53
2019-01-10T21:59:36.645Z,19.53
2019-01-10T22:02:06.639Z,20.30
2019-01-10T22:04:36.717Z,19.10
2019-01-10T22:07:09.687Z,19.73
2019-01-10T22:09:40.385Z,20.10
2019-01-10T22:12:14.927Z,21.57
2019-01-10T22:14:44.913Z,21.13
2019-01-10T22:17:25.833Z,21.37
2019-01-10T22:19:55.645Z,21.43
2019-01-10T22:22:25.464Z,21.20
2019-01-10T22:24:56.418Z,22.13
2019-01-10T22:27:26.425Z,21.20
2019-01-10T22:29:56.572Z,20.27
2019-01-10T22:32:27.781Z,20.70
2019-01-10T22:35:01.100Z,20.90
2019-01-10T22:37:34.388Z,21.57
2019-01-10T22:40:10.042Z,22.07
2019-01-10T22:42:47.634Z,22.33
2019-01-10T22:45:18.524Z,21.23
2019-01-10T22:47:48.532Z,22.87
2019-01-10T22:50:21.760Z,22.17
2019-01-10T22:52:51.649Z,22.53
2019-01-10T22:55:24.754Z,22.83
2019-01-10T22:57:58.337Z,23.80
2019-01-10T23:00:54.410Z,23.83
2019-01-10T23:03:24.625Z,25.27
2019-01-10T23:06:01.874Z,25.53
2019-01-10T23:08:39.466Z,25.30
2019-01-10T23:11:14.615Z,24.37
2019-01-10T23:13:55.859Z,24.67
2019-01-10T23:16:22.192Z,23.77
2019-01-10T23:18:54.338Z,24.27
2019-01-10T23:21:23.592Z,24.93
2019-01-10T23:23:56.835Z,23.07
2019-01-10T23:26:30.215Z,23.00
2019-01-10T23:29:01.573Z,24.10
2019-01-10T23:31:34.652Z,24.17
2019-01-10T23:34:07.420Z,23.60
2019-01-10T23:36:38.771Z,22.53
2019-01-10T23:39:19.022Z,23.43
2019-01-10T23:41:52.996Z,21.47
2019-01-10T23:44:23.151Z,21.23
2019-01-10T23:46:54.854Z,20.80
2019-01-10T23:49:24.597Z,20.27
2019-01-10T23:51:54.350Z,19.87
2019-01-10T23:54:24.110Z,21.70
2019-01-10T23:56:53.880Z,20.23
2019-01-10T23:59:24.609Z,19.63
